Time;durP1;ratioP1;P1;durP2;ratioP2;P2;SDS_P1;SDS_P2;PMS_P1;PMS_P2;Temp;Humidity;BMP_temperature;BMP_pressure;BME280_temperature;BME280_humidity;BME280_pressure;Samples;Min_cycle;Max_cycle;Signal;HPM_P1;HPM_P2
2022/10/21 00:00:15;;;;;;;27.42;19.40;;;;;;;5.03;100.00;99904.78;4991881;28;20018;-90
2022/10/21 00:02:40;;;;;;;31.40;19.83;;;;;;;4.99;100.00;99911.72;4991480;28;20144;-90
2022/10/21 00:05:06;;;;;;;33.92;21.35;;;;;;;5.02;100.00;99914.25;4991795;28;20380;-89
2022/10/21 00:07:33;;;;;;;29.73;20.42;;;;;;;5.03;100.00;99923.69;4971933;28;20027;-89
2022/10/21 00:09:58;;;;;;;32.72;21.20;;;;;;;5.00;100.00;99911.69;4972161;28;20474;-89
2022/10/21 00:12:24;;;;;;;31.45;20.20;;;;;;;5.00;100.00;99900.50;4972131;28;20135;-89
2022/10/21 00:14:49;;;;;;;33.53;20.95;;;;;;;4.98;100.00;99897.13;4971803;28;20122;-89
2022/10/21 00:17:14;;;;;;;37.88;23.23;;;;;;;4.93;100.00;99896.34;4972140;28;20038;-88
2022/10/21 00:19:41;;;;;;;28.80;18.65;;;;;;;4.92;100.00;99895.50;4971929;28;20105;-89
2022/10/21 00:22:07;;;;;;;33.60;19.70;;;;;;;4.96;100.00;99907.47;4972120;28;20035;-89
2022/10/21 00:24:32;;;;;;;30.80;19.67;;;;;;;4.88;100.00;99887.84;4971867;28;20050;-88
2022/10/21 00:26:58;;;;;;;30.45;20.15;;;;;;;4.91;100.00;99892.97;4955689;28;20030;-88
2022/10/21 00:29:23;;;;;;;32.97;21.23;;;;;;;4.91;100.00;99885.22;4971963;28;20037;-89
2022/10/21 00:31:52;;;;;;;29.27;19.88;;;;;;;4.90;100.00;99880.94;4955526;28;20394;-88
2022/10/21 00:34:18;;;;;;;36.03;22.85;;;;;;;4.87;100.00;99879.25;4954704;28;20062;-90
2022/10/21 00:36:43;;;;;;;35.00;23.13;;;;;;;4.89;100.00;99869.78;4955275;28;20057;-89
2022/10/21 00:39:08;;;;;;;36.72;22.70;;;;;;;4.91;100.00;99868.00;4982489;28;20030;-89
2022/10/21 00:41:34;;;;;;;31.10;20.73;;;;;;;4.88;100.00;99857.72;4992020;28;20045;-90
2022/10/21 00:44:07;;;;;;;34.60;22.85;;;;;;;4.92;100.00;99861.94;4992315;28;20084;-89
2022/10/21 00:46:54;;;;;;;32.25;21.73;;;;;;;4.93;100.00;99850.75;4991977;28;20022;-89
2022/10/21 00:49:28;;;;;;;36.05;22.80;;;;;;;4.98;100.00;99855.84;5002219;28;20042;-89
2022/10/21 00:51:58;;;;;;;38.47;21.30;;;;;;;5.03;100.00;99835.09;4995199;28;20469;-89
2022/10/21 00:54:25;;;;;;;29.42;20.33;;;;;;;4.93;100.00;99837.84;4995112;28;20112;-89
2022/10/21 00:56:55;;;;;;;39.58;24.50;;;;;;;5.07;100.00;99852.22;5011254;28;20024;-89
2022/10/21 00:59:24;;;;;;;30.38;21.00;;;;;;;5.07;100.00;99849.63;5011435;28;20072;-89
2022/10/21 01:01:49;;;;;;;33.13;21.65;;;;;;;5.11;100.00;99852.09;5012502;28;20049;-89
2022/10/21 01:04:15;;;;;;;37.38;23.35;;;;;;;5.20;100.00;99846.75;4994996;28;20010;-89
2022/10/21 01:06:41;;;;;;;33.53;21.85;;;;;;;5.29;100.00;99837.09;4994751;28;20071;-89
2022/10/21 01:09:07;;;;;;;32.53;21.27;;;;;;;5.34;100.00;99835.25;5011293;28;20094;-89
2022/10/21 01:11:42;;;;;;;37.00;23.13;;;;;;;5.42;100.00;99826.44;4970731;28;20030;-90
2022/10/21 01:14:27;;;;;;;30.75;21.27;;;;;;;5.39;100.00;99808.44;4954905;28;20033;-89
2022/10/21 01:17:11;;;;;;;34.03;21.75;;;;;;;5.49;100.00;99814.25;4954565;28;20484;-89
2022/10/21 01:20:02;;;;;;;35.28;22.63;;;;;;;5.55;100.00;99801.19;4970918;28;20027;-90
2022/10/21 01:22:46;;;;;;;;;;;;;;;5.58;100.00;99795.94;4971555;28;20406;-90
2022/10/21 01:25:33;;;;;;;30.25;19.83;;;;;;;5.61;100.00;99801.06;4970967;28;20346;-89
2022/10/21 01:28:26;;;;;;;35.92;21.73;;;;;;;5.66;100.00;99816.44;4970950;28;20045;-90
2022/10/21 01:31:00;;;;;;;30.95;20.55;;;;;;;5.67;100.00;99820.72;4954517;28;20023;-90
2022/10/21 01:33:41;;;;;;;36.70;21.35;;;;;;;5.72;100.00;99818.88;4970832;28;20025;-90
2022/10/21 01:36:51;;;;;;;28.92;19.02;;;;;;;5.73;100.00;99828.31;4970719;28;20433;-89
2022/10/21 01:39:19;;;;;;;23.55;17.92;;;;;;;5.75;100.00;99829.13;4894673;29;20142;-89
2022/10/21 01:41:58;;;;;;;28.10;20.60;;;;;;;5.74;100.00;99830.03;4884717;29;20036;-89
2022/10/21 01:44:33;;;;;;;25.48;17.90;;;;;;;5.73;100.00;99812.81;4916519;29;20038;-89
2022/10/21 01:47:08;;;;;;;28.38;18.65;;;;;;;5.78;100.00;99821.31;4916252;29;20024;-89
2022/10/21 01:49:46;;;;;;;30.23;20.42;;;;;;;5.81;100.00;99823.81;4931960;29;20623;-90
2022/10/21 01:52:15;;;;;;;32.08;20.67;;;;;;;5.85;100.00;99825.44;4932428;29;20028;-89
2022/10/21 01:54:44;;;;;;;38.05;21.00;;;;;;;5.81;100.00;99812.63;4916128;29;20023;-90
2022/10/21 01:57:13;;;;;;;29.80;19.05;;;;;;;5.84;100.00;99826.31;4916312;29;20032;-89
2022/10/21 01:59:41;;;;;;;27.97;19.50;;;;;;;5.78;100.00;99813.56;4932124;29;20102;-90
2022/10/21 02:02:09;;;;;;;28.38;18.55;;;;;;;5.72;100.00;99816.28;4916395;29;20031;-90
2022/10/21 02:04:37;;;;;;;27.05;18.90;;;;;;;5.80;100.00;99823.84;4932150;29;20474;-89
2022/10/21 02:07:03;;;;;;;33.33;20.40;;;;;;;5.81;100.00;99820.38;4916445;29;20030;-90
2022/10/21 02:09:29;;;;;;;30.08;20.55;;;;;;;5.81;100.00;99823.81;4916330;29;20032;-89
2022/10/21 02:11:58;;;;;;;27.48;19.60;;;;;;;5.81;100.00;99816.06;4916054;29;20019;-89
2022/10/21 02:14:30;;;;;;;29.55;19.98;;;;;;;5.75;100.00;99811.03;4916152;29;20384;-89
2022/10/21 02:16:58;;;;;;;31.42;22.13;;;;;;;5.84;100.00;99820.31;4966073;28;20418;-89
2022/10/21 02:19:23;;;;;;;30.85;21.40;;;;;;;5.83;100.00;99809.13;4990963;28;20025;-89
2022/10/21 02:21:51;;;;;;;30.88;20.65;;;;;;;5.83;100.00;99816.88;4991986;28;20026;-89
2022/10/21 02:24:52;;;;;;;31.42;20.88;;;;;;;5.81;100.00;99810.88;4974691;28;20136;-89
2022/10/21 02:27:19;;;;;;;33.15;20.38;;;;;;;5.74;100.00;99809.34;4916145;29;20038;-89
2022/10/21 02:29:46;;;;;;;26.92;19.33;;;;;;;5.74;100.00;99804.19;4931789;29;20036;-89
2022/10/21 02:32:24;;;;;;;30.08;22.17;;;;;;;5.73;100.00;99810.22;4931968;29;20055;-90
2022/10/21 02:35:08;;;;;;;35.25;23.20;;;;;;;5.72;100.00;99798.19;4931527;29;20164;-89
2022/10/21 02:37:39;;;;;;;29.00;19.25;;;;;;;5.71;100.00;99794.75;4931976;29;20063;-89
2022/10/21 02:40:11;;;;;;;35.47;22.92;;;;;;;5.71;100.00;99802.50;4931903;29;20102;-89
2022/10/21 02:42:42;;;;;;;34.25;22.27;;;;;;;5.72;100.00;99791.28;4931508;29;20030;-89
2022/10/21 02:45:09;;;;;;;28.77;20.02;;;;;;;5.71;100.00;99781.84;4931754;29;20016;-89
2022/10/21 02:47:38;;;;;;;30.20;20.25;;;;;;;5.75;100.00;99782.63;4931826;29;20059;-89
2022/10/21 02:50:04;;;;;;;30.27;19.40;;;;;;;5.79;100.00;99783.41;4960296;28;20134;-89
2022/10/21 02:52:29;;;;;;;30.30;19.70;;;;;;;5.81;100.00;99787.63;4954004;28;20027;-89
2022/10/21 02:54:55;;;;;;;26.23;19.42;;;;;;;5.79;100.00;99778.22;4953714;28;20438;-89
2022/10/21 02:57:20;;;;;;;33.30;21.77;;;;;;;5.85;100.00;99791.81;4970203;28;20591;-89
2022/10/21 02:59:46;;;;;;;30.27;22.17;;;;;;;5.86;100.00;99784.94;4957087;28;20121;-89
2022/10/21 03:02:12;;;;;;;31.20;21.40;;;;;;;5.92;100.00;99788.25;4963782;28;20033;-89
2022/10/21 03:04:37;;;;;;;31.73;19.27;;;;;;;5.92;100.00;99785.66;4995164;28;20416;-89
2022/10/21 03:07:03;;;;;;;30.67;21.83;;;;;;;5.97;100.00;99790.72;4973338;28;20122;-90
2022/10/21 03:09:28;;;;;;;30.23;20.23;;;;;;;5.99;100.00;99787.22;4973276;28;20073;-90
2022/10/21 03:11:53;;;;;;;31.20;20.23;;;;;;;5.98;100.00;99785.50;4973105;28;20061;-89
2022/10/21 03:14:19;;;;;;;27.73;19.80;;;;;;;6.03;100.00;99781.97;4973267;28;20494;-89
2022/10/21 03:16:44;;;;;;;31.05;19.35;;;;;;;6.03;100.00;99774.22;4973045;28;20466;-89
2022/10/21 03:19:10;;;;;;;34.78;21.02;;;;;;;6.04;100.00;99774.16;4953777;29;20027;-89
2022/10/21 03:21:35;;;;;;;28.23;19.10;;;;;;;6.01;100.00;99771.66;4953881;28;20035;-89
2022/10/21 03:24:01;;;;;;;32.95;21.10;;;;;;;5.99;100.00;99757.94;4953556;28;20034;-88
2022/10/21 03:26:26;;;;;;;26.67;18.13;;;;;;;6.03;100.00;99769.03;4953909;29;20395;-89
2022/10/21 03:28:52;;;;;;;26.83;20.10;;;;;;;5.98;100.00;99754.50;4953506;28;20063;-89
2022/10/21 03:31:17;;;;;;;30.42;21.63;;;;;;;6.00;100.00;99759.63;4953686;28;20053;-90
2022/10/21 03:33:42;;;;;;;27.85;18.35;;;;;;;6.02;100.00;99760.41;4953457;28;20392;-89
2022/10/21 03:36:08;;;;;;;28.33;20.27;;;;;;;6.04;100.00;99760.38;4937540;28;20019;-89
2022/10/21 03:38:33;;;;;;;30.75;21.25;;;;;;;6.08;100.00;99772.34;4953532;28;20031;-89
2022/10/21 03:40:59;;;;;;;32.40;21.92;;;;;;;6.05;100.00;99736.22;4953280;28;20081;-89
2022/10/21 03:43:24;;;;;;;31.08;21.63;;;;;;;6.15;100.00;99741.13;4954540;28;20023;-90
2022/10/21 03:45:50;;;;;;;31.58;19.27;;;;;;;6.16;100.00;99740.22;4956220;28;20382;-90
2022/10/21 03:48:15;;;;;;;29.17;19.95;;;;;;;6.19;100.00;99736.69;4956521;28;20114;-89
2022/10/21 03:50:40;;;;;;;32.17;20.33;;;;;;;6.21;100.00;99738.34;4976543;28;20250;-89
2022/10/21 03:53:06;;;;;;;30.05;19.73;;;;;;;6.22;100.00;99734.88;4976989;28;20469;-89
2022/10/21 03:55:31;;;;;;;30.30;18.27;;;;;;;6.25;100.00;99744.28;4994317;28;20023;-90
2022/10/21 03:57:56;;;;;;;29.80;20.77;;;;;;;6.29;100.00;99751.06;4976703;28;20030;-91
2022/10/21 04:00:22;;;;;;;28.52;19.35;;;;;;;6.31;100.00;99738.94;4976784;28;20030;-91
2022/10/21 04:02:48;;;;;;;28.15;19.30;;;;;;;6.31;100.00;99730.31;4976562;28;20028;-91
2022/10/21 04:05:14;;;;;;;28.60;19.30;;;;;;;6.42;100.00;99730.88;4976748;28;20485;-90
2022/10/21 04:07:40;;;;;;;23.38;17.50;;;;;;;6.50;100.00;99734.09;4976704;28;20026;-90
2022/10/21 04:10:07;;;;;;;28.75;20.73;;;;;;;6.52;100.00;99729.72;4976706;28;20033;-91
2022/10/21 04:12:32;;;;;;;25.48;18.83;;;;;;;6.54;100.00;99722.78;4976564;28;20030;-90
2022/10/21 04:14:58;;;;;;;28.30;18.50;;;;;;;6.59;100.00;99725.22;4976527;28;20469;-90
2022/10/21 04:17:23;;;;;;;26.05;19.70;;;;;;;6.61;100.00;99726.88;4976514;28;20216;-91
2022/10/21 04:19:48;;;;;;;23.60;18.15;;;;;;;6.62;100.00;99719.97;4976264;28;20113;-90
2022/10/21 04:22:14;;;;;;;26.45;18.75;;;;;;;6.65;100.00;99714.69;4976425;28;20027;-90
2022/10/21 04:24:39;;;;;;;30.55;20.77;;;;;;;6.64;100.00;99711.25;4976437;28;20113;-89
2022/10/21 04:27:04;;;;;;;27.40;17.65;;;;;;;6.64;100.00;99702.66;4976130;28;20026;-89
2022/10/21 04:29:30;;;;;;;26.52;18.67;;;;;;;6.65;100.00;99705.19;4976273;28;20450;-89
2022/10/21 04:31:55;;;;;;;26.55;17.98;;;;;;;6.67;100.00;99705.16;4976199;28;20030;-90
2022/10/21 04:34:21;;;;;;;26.27;17.27;;;;;;;6.66;100.00;99699.13;4976238;28;20363;-90
2022/10/21 04:36:46;;;;;;;26.23;19.48;;;;;;;6.69;100.00;99709.38;4975996;28;20476;-90
2022/10/21 04:39:11;;;;;;;22.25;16.58;;;;;;;6.69;100.00;99698.16;4976149;28;20030;-90
2022/10/21 04:41:37;;;;;;;23.55;16.67;;;;;;;6.73;100.00;99692.00;4976041;28;20037;-89
2022/10/21 04:44:03;;;;;;;24.42;16.77;;;;;;;6.75;100.00;99687.66;4975750;28;20080;-89
2022/10/21 04:46:29;;;;;;;23.05;16.90;;;;;;;6.80;100.00;99682.31;4975962;28;20014;-90
2022/10/21 04:48:54;;;;;;;22.90;16.63;;;;;;;6.82;100.00;99667.59;4980754;28;20053;-90
2022/10/21 04:51:19;;;;;;;24.50;18.38;;;;;;;6.80;100.00;99669.38;5013002;28;20026;-90
2022/10/21 04:53:45;;;;;;;21.83;16.60;;;;;;;6.84;100.00;99665.81;4995056;28;20446;-90
2022/10/21 04:56:11;;;;;;;21.85;16.38;;;;;;;6.82;100.00;99660.66;4995161;28;20029;-89
2022/10/21 04:58:36;;;;;;;26.77;17.50;;;;;;;6.84;100.00;99648.53;4995166;28;20025;-91
2022/10/21 05:01:02;;;;;;;25.75;17.52;;;;;;;6.83;100.00;99644.25;4994896;28;20118;-91
2022/10/21 05:03:29;;;;;;;27.67;17.80;;;;;;;6.86;100.00;99644.13;4995095;28;20056;-91
2022/10/21 05:05:54;;;;;;;22.38;17.13;;;;;;;6.84;100.00;99632.16;4994803;28;20389;-91
2022/10/21 05:08:21;;;;;;;25.92;18.48;;;;;;;6.87;100.00;99638.09;4995311;28;20036;-91
2022/10/21 05:10:47;;;;;;;27.10;18.02;;;;;;;6.90;100.00;99637.13;4994790;28;20376;-91
2022/10/21 05:13:12;;;;;;;21.63;15.68;;;;;;;6.90;100.00;99621.59;4994948;28;20037;-91
2022/10/21 05:15:38;;;;;;;22.20;16.50;;;;;;;6.92;100.00;99615.47;4994773;28;20137;-90
2022/10/21 05:18:04;;;;;;;24.27;17.42;;;;;;;6.94;100.00;99613.66;4994663;28;20373;-91
2022/10/21 05:20:29;;;;;;;30.58;16.75;;;;;;;6.95;100.00;99604.16;4994366;28;20377;-91
2022/10/21 05:22:55;;;;;;;23.45;16.08;;;;;;;6.97;100.00;99607.56;4994531;28;20439;-91
2022/10/21 05:25:21;;;;;;;23.17;16.98;;;;;;;6.99;100.00;99603.16;4994878;28;20104;-91
2022/10/21 05:27:47;;;;;;;22.70;16.35;;;;;;;6.98;100.00;99593.72;4994628;28;20376;-91
2022/10/21 05:30:13;;;;;;;25.60;17.50;;;;;;;7.02;100.00;99597.88;4994794;28;20034;-91
2022/10/21 05:32:39;;;;;;;23.20;16.80;;;;;;;7.03;100.00;99601.31;4994634;28;20049;-91
2022/10/21 05:35:05;;;;;;;22.17;16.02;;;;;;;7.00;100.00;99582.41;4994345;28;20029;-91
2022/10/21 05:37:30;;;;;;;18.65;15.57;;;;;;;7.01;100.00;99580.66;4994637;28;20535;-91
2022/10/21 05:39:56;;;;;;;20.73;16.10;;;;;;;7.02;100.00;99579.75;4994415;28;20025;-90
2022/10/21 05:42:22;;;;;;;22.38;16.50;;;;;;;7.04;100.00;99580.56;4994589;28;20026;-90
2022/10/21 05:44:48;;;;;;;27.27;16.77;;;;;;;7.05;100.00;99568.47;4994432;28;20080;-90
2022/10/21 05:47:14;;;;;;;19.98;14.43;;;;;;;7.09;100.00;99565.72;4994710;28;20017;-91
2022/10/21 05:49:39;;;;;;;23.23;17.25;;;;;;;7.14;100.00;99568.16;4994387;28;20092;-90
2022/10/21 05:52:05;;;;;;;23.95;15.45;;;;;;;7.19;100.00;99564.50;4994347;28;20034;-90
2022/10/21 05:54:31;;;;;;;18.33;14.98;;;;;;;7.24;100.00;99560.00;4994623;28;20026;-90
2022/10/21 05:56:57;;;;;;;20.55;14.88;;;;;;;7.29;100.00;99559.88;4994177;28;20384;-90
2022/10/21 05:59:23;;;;;;;23.75;15.35;;;;;;;7.29;100.00;99549.50;4994510;28;20037;-90
2022/10/21 06:01:49;;;;;;;21.17;16.25;;;;;;;7.30;100.00;99542.56;4994220;28;20532;-91
2022/10/21 06:04:14;;;;;;;19.20;14.15;;;;;;;7.37;100.00;99554.41;4994356;28;20112;-89
2022/10/21 06:06:40;;;;;;;22.38;16.00;;;;;;;7.40;100.00;99541.34;4994324;28;20021;-90
2022/10/21 06:09:05;;;;;;;20.77;14.43;;;;;;;7.47;100.00;99537.66;4994222;28;20025;-92
2022/10/21 06:11:31;;;;;;;19.48;14.40;;;;;;;7.52;100.00;99545.25;4994291;28;20109;-90
2022/10/21 06:13:57;;;;;;;19.92;15.63;;;;;;;7.60;100.00;99545.81;4951220;28;20035;-90
2022/10/21 06:16:23;;;;;;;20.30;14.13;;;;;;;7.65;100.00;99539.56;4935127;29;20390;-90
2022/10/21 06:18:48;;;;;;;15.93;12.95;;;;;;;7.72;100.00;99545.38;4951161;28;20046;-90
2022/10/21 06:21:14;;;;;;;19.77;15.32;;;;;;;7.77;100.00;99553.84;4935346;29;20034;-90
2022/10/21 06:23:40;;;;;;;19.58;14.50;;;;;;;7.85;100.00;99553.56;4935131;29;20433;-90
2022/10/21 06:26:10;;;;;;;20.13;14.48;;;;;;;7.89;100.00;99542.16;4934871;29;20031;-90
2022/10/21 06:28:37;;;;;;;18.17;12.63;;;;;;;7.93;100.00;99542.00;4935183;29;20035;-90
2022/10/21 06:31:04;;;;;;;19.30;13.38;;;;;;;7.97;100.00;99529.75;4934901;29;20027;-90
2022/10/21 06:33:29;;;;;;;16.77;13.10;;;;;;;7.94;100.00;99514.31;4936761;29;20486;-91
2022/10/21 06:35:55;;;;;;;20.30;14.38;;;;;;;8.06;100.00;99532.00;4938457;29;20024;-91
2022/10/21 06:38:21;;;;;;;22.58;16.58;;;;;;;8.07;100.00;99531.09;4938811;29;20127;-90
2022/10/21 06:40:47;;;;;;;18.08;14.55;;;;;;;8.13;100.00;99545.56;4938657;29;20564;-90
2022/10/21 06:43:13;;;;;;;26.33;15.55;;;;;;;8.16;100.00;99543.69;4938393;29;20371;-91
2022/10/21 06:45:39;;;;;;;17.05;12.95;;;;;;;8.20;100.00;99539.25;4985606;28;20488;-91
2022/10/21 06:48:05;;;;;;;21.55;13.55;;;;;;;8.28;100.00;99544.13;4997454;28;20026;-91
2022/10/21 06:50:30;;;;;;;25.45;15.73;;;;;;;8.33;100.00;99544.81;4997366;28;20048;-90
2022/10/21 06:52:56;;;;;;;19.65;13.30;;;;;;;8.37;100.00;99541.22;4997579;28;20022;-90
2022/10/21 06:55:22;;;;;;;20.65;12.23;;;;;;;8.41;100.00;99532.41;4997459;28;20457;-90
2022/10/21 06:57:47;;;;;;;20.42;14.98;;;;;;;8.40;99.75;99535.91;4997484;28;20096;-91
2022/10/21 07:00:13;;;;;;;18.17;14.40;;;;;;;8.38;99.77;99525.56;4997301;28;20029;-90
2022/10/21 07:02:38;;;;;;;18.38;14.60;;;;;;;8.37;99.75;99526.47;4997545;28;20022;-90
2022/10/21 07:05:05;;;;;;;16.95;13.82;;;;;;;8.38;99.27;99519.53;4997234;28;20021;-90
2022/10/21 07:07:30;;;;;;;15.45;11.48;;;;;;;8.43;99.73;99521.06;4997305;28;20390;-90
2022/10/21 07:09:56;;;;;;;16.55;11.27;;;;;;;8.55;99.35;99534.44;4996933;28;20042;-90
2022/10/21 07:12:23;;;;;;;18.67;13.60;;;;;;;8.65;99.10;99540.97;4997296;28;20018;-92
2022/10/21 07:14:49;;;;;;;17.48;12.48;;;;;;;8.69;98.59;99532.16;4997066;28;20026;-91
2022/10/21 07:17:16;;;;;;;17.67;12.52;;;;;;;8.77;98.00;99534.44;4996779;28;20018;-91
2022/10/21 07:19:41;;;;;;;19.48;12.45;;;;;;;8.80;97.41;99537.72;4997108;28;20060;-91
2022/10/21 07:22:07;;;;;;;24.75;13.00;;;;;;;8.84;97.39;99539.28;4972808;28;20047;-91
2022/10/21 07:24:32;;;;;;;15.90;11.05;;;;;;;8.90;97.29;99543.41;4956953;28;20131;-91
2022/10/21 07:26:58;;;;;;;16.80;12.43;;;;;;;8.96;96.86;99537.94;4972856;28;20497;-91
2022/10/21 07:29:24;;;;;;;16.20;11.98;;;;;;;9.07;96.51;99525.34;4956961;28;20505;-91
2022/10/21 07:31:49;;;;;;;15.02;11.38;;;;;;;9.28;95.70;99533.16;4973043;28;20065;-90
2022/10/21 07:34:15;;;;;;;18.15;12.30;;;;;;;9.65;94.64;99533.22;4972783;28;20376;-90
2022/10/21 07:36:46;;;;;;;13.90;11.05;;;;;;;9.74;93.50;99526.78;4972949;28;20037;-91
2022/10/21 07:39:15;;;;;;;13.90;11.20;;;;;;;9.85;93.08;99542.72;4953150;29;20035;-90
2022/10/21 07:41:43;;;;;;;17.20;12.10;;;;;;;9.97;92.21;99543.91;4953475;29;20037;-91
2022/10/21 07:44:09;;;;;;;15.63;10.23;;;;;;;9.94;90.81;99534.53;4952842;28;20501;-91
2022/10/21 07:46:37;;;;;;;20.70;12.35;;;;;;;9.96;90.72;99537.03;4953349;29;20019;-91
2022/10/21 07:49:03;;;;;;;15.80;11.80;;;;;;;9.85;90.73;99529.72;4953107;29;20039;-90
2022/10/21 07:51:28;;;;;;;14.98;10.32;;;;;;;9.91;91.37;99537.25;4953495;29;20487;-90
2022/10/21 07:53:55;;;;;;;11.95;10.27;;;;;;;9.80;90.90;99543.84;4985519;28;20030;-90
2022/10/21 07:56:27;;;;;;;14.32;10.57;;;;;;;9.80;91.55;99542.09;4975912;28;20533;-90
2022/10/21 07:58:53;;;;;;;17.42;11.35;;;;;;;9.80;91.43;99549.06;4953176;29;20431;-91
2022/10/21 08:01:19;;;;;;;14.00;11.70;;;;;;;9.79;91.17;99542.16;4947607;28;20028;-91
2022/10/21 08:03:46;;;;;;;17.05;10.90;;;;;;;9.92;91.46;99543.28;4932593;29;20374;-91
2022/10/21 08:06:13;;;;;;;16.90;12.20;;;;;;;9.98;91.19;99537.78;4932973;29;20019;-91
2022/10/21 08:08:39;;;;;;;22.70;12.25;;;;;;;10.08;91.13;99522.63;4916860;29;20118;-91
2022/10/21 08:11:08;;;;;;;15.45;12.00;;;;;;;10.28;90.92;99525.19;4931946;29;20475;-91
2022/10/21 08:13:34;;;;;;;19.92;11.63;;;;;;;10.36;89.82;99517.81;4963310;28;20030;-92
2022/10/21 08:16:00;;;;;;;15.25;11.02;;;;;;;10.32;89.65;99510.22;4967803;28;20033;-91
2022/10/21 08:18:26;;;;;;;17.00;12.20;;;;;;;10.29;89.60;99506.03;4965238;28;20046;-90
2022/10/21 08:20:52;;;;;;;14.77;11.05;;;;;;;10.27;89.94;99510.44;4971793;28;20069;-90
2022/10/21 08:23:20;;;;;;;13.02;10.85;;;;;;;10.31;90.36;99519.78;4962151;28;20625;-92
2022/10/21 08:25:56;;;;;;;16.48;12.55;;;;;;;10.31;89.94;99525.00;4953992;28;20418;-91
2022/10/21 08:28:24;;;;;;;15.68;11.60;;;;;;;10.39;90.07;99524.66;4956365;28;20015;-91
2022/10/21 08:30:50;;;;;;;15.77;11.40;;;;;;;10.52;90.02;99509.28;4955212;28;20031;-88
2022/10/21 08:33:15;;;;;;;17.13;11.35;;;;;;;10.67;89.93;99496.34;4966633;28;20078;-92
2022/10/21 08:35:43;;;;;;;16.67;11.52;;;;;;;10.76;89.56;99502.03;4976428;28;20037;-94
2022/10/21 08:38:09;;;;;;;17.00;11.73;;;;;;;10.69;88.59;99483.25;4995479;28;20028;-94
2022/10/21 08:40:46;;;;;;;16.08;11.60;;;;;;;10.82;88.86;99493.91;4995673;28;20049;-92
2022/10/21 08:43:28;;;;;;;16.13;11.52;;;;;;;10.93;88.85;99483.78;4995006;28;20331;-90
2022/10/21 08:46:01;;;;;;;15.38;12.05;;;;;;;11.14;88.58;99480.06;4994943;28;20022;-90
2022/10/21 08:48:40;;;;;;;17.60;11.68;;;;;;;11.31;88.09;99475.75;4994826;28;20076;-92
2022/10/21 08:51:11;;;;;;;17.85;12.20;;;;;;;11.43;87.26;99477.72;4951919;29;20470;-93
2022/10/21 08:53:40;;;;;;;;;;;;;;;11.47;87.22;99480.09;4952982;29;20042;-93
2022/10/21 08:56:12;;;;;;;15.18;11.70;;;;;;;11.52;86.96;99476.38;4951381;28;20421;-92
2022/10/21 08:58:37;;;;;;;11.02;9.48;;;;;;;11.56;87.03;99470.94;4952270;29;20037;-91
2022/10/21 09:01:21;;;;;;;13.65;10.00;;;;;;;11.72;86.38;99474.41;4935960;29;20035;-90
2022/10/21 09:03:53;;;;;;;17.05;10.80;;;;;;;11.92;85.73;99468.09;4952087;29;20114;-90
2022/10/21 09:06:34;;;;;;;15.15;10.68;;;;;;;11.96;84.61;99460.94;4952032;29;20043;-93
2022/10/21 09:09:27;;;;;;;12.45;10.75;;;;;;;12.03;84.59;99464.91;4935856;29;20023;-92
2022/10/21 09:12:05;;;;;;;15.82;10.25;;;;;;;12.03;84.30;99466.69;4936132;29;20110;-91
2022/10/21 09:15:02;;;;;;;14.25;10.25;;;;;;;12.11;84.79;99465.34;4935863;29;20024;-91
2022/10/21 09:18:06;;;;;;;13.45;9.75;;;;;;;12.20;84.17;99461.38;4894689;29;20048;-91
2022/10/21 09:20:37;;;;;;;14.45;9.35;;;;;;;12.27;83.96;99448.81;4894820;29;20023;-90
2022/10/21 09:23:27;;;;;;;14.88;9.95;;;;;;;12.34;83.52;99456.19;4911210;29;20043;-92
2022/10/21 09:25:55;;;;;;;12.90;9.57;;;;;;;12.35;83.68;99449.22;4914023;29;20543;-91
2022/10/21 09:28:24;;;;;;;14.45;9.75;;;;;;;12.27;83.21;99443.59;4913588;29;20028;-92
2022/10/21 09:30:51;;;;;;;12.23;9.27;;;;;;;12.20;83.60;99433.47;4913715;29;20024;-91
2022/10/21 09:33:29;;;;;;;12.00;9.38;;;;;;;12.34;83.89;99444.91;4913350;29;20043;-91
2022/10/21 09:36:15;;;;;;;14.95;9.90;;;;;;;12.39;82.84;99432.44;4897734;29;20383;-91
2022/10/21 09:38:59;;;;;;;12.80;9.10;;;;;;;12.42;83.22;99427.03;4897850;29;20024;-91
2022/10/21 09:41:35;;;;;;;16.05;9.68;;;;;;;12.46;82.56;99420.69;4913580;29;20028;-92
2022/10/21 09:44:01;;;;;;;13.45;8.65;;;;;;;12.41;82.72;99415.75;4897487;29;20024;-92
2022/10/21 09:46:26;;;;;;;12.98;8.77;;;;;;;12.46;83.28;99418.91;4913551;29;20168;-91
2022/10/21 09:48:54;;;;;;;12.38;8.80;;;;;;;12.56;83.54;99416.63;4897358;29;20136;-91
2022/10/21 09:51:25;;;;;;;10.80;8.80;;;;;;;12.60;83.25;99418.13;4897385;29;20514;-91
2022/10/21 09:54:21;;;;;;;13.20;8.23;;;;;;;12.65;82.93;99417.88;4941104;28;20033;-90
2022/10/21 09:57:03;;;;;;;11.52;8.20;;;;;;;12.78;82.94;99433.66;4916206;29;20144;-92
2022/10/21 09:59:30;;;;;;;13.77;8.63;;;;;;;12.95;82.88;99429.09;4916611;29;20028;-93
2022/10/21 10:02:04;;;;;;;15.35;9.52;;;;;;;12.96;81.17;99425.56;4932403;29;20035;-92
2022/10/21 10:04:33;;;;;;;12.23;8.55;;;;;;;13.03;81.41;99431.28;4917058;29;20069;-93
2022/10/21 10:07:01;;;;;;;11.93;8.55;;;;;;;13.20;81.71;99432.88;4917486;29;20383;-92
2022/10/21 10:09:28;;;;;;;13.93;8.93;;;;;;;13.28;80.90;99425.44;4920264;29;20480;-92
2022/10/21 10:12:01;;;;;;;10.10;8.60;;;;;;;13.35;80.79;99423.25;4920274;29;20027;-94
2022/10/21 10:14:35;;;;;;;10.15;8.48;;;;;;;13.47;80.77;99414.66;4920095;29;20192;-92
2022/10/21 10:17:19;;;;;;;13.07;8.48;;;;;;;13.63;80.69;99409.31;4920040;29;20114;-91
2022/10/21 10:20:18;;;;;;;10.07;7.82;;;;;;;13.65;79.92;99396.94;4920104;29;20028;-90
2022/10/21 10:23:07;;;;;;;10.20;8.73;;;;;;;13.45;79.19;99400.84;4864180;29;20441;-92
2022/10/21 10:25:36;;;;;;;13.82;8.50;;;;;;;13.31;79.41;99393.00;4879432;29;20458;-92
2022/10/21 10:28:03;;;;;;;17.08;8.82;;;;;;;13.28;80.04;99385.34;4879373;29;20076;-91
2022/10/21 10:30:41;;;;;;;10.38;8.40;;;;;;;13.28;80.46;99391.41;4863781;29;20047;-92
2022/10/21 10:33:19;;;;;;;12.80;8.30;;;;;;;13.37;80.45;99393.47;4895982;29;20494;-90
2022/10/21 10:35:53;;;;;;;11.73;8.15;;;;;;;13.40;81.07;99393.28;4908737;29;20488;-89
2022/10/21 10:38:51;;;;;;;11.32;8.25;;;;;;;13.42;81.16;99391.41;4914636;29;20038;-91
2022/10/21 10:41:17;;;;;;;10.48;8.25;;;;;;;13.44;80.50;99383.44;4857751;29;20041;-91
2022/10/21 10:43:47;;;;;;;15.68;9.35;;;;;;;13.44;79.91;99370.34;4862028;29;20481;-90
2022/10/21 10:46:29;;;;;;;9.47;7.90;;;;;;;13.51;80.49;99379.50;4859354;29;20500;-91
2022/10/21 10:48:58;;;;;;;11.55;8.07;;;;;;;13.48;80.41;99374.47;4856384;29;20108;-90
2022/10/21 10:51:29;;;;;;;11.48;8.32;;;;;;;13.65;80.64;99395.19;4862148;29;20060;-91
2022/10/21 10:54:24;;;;;;;12.05;8.27;;;;;;;13.61;80.02;99391.09;4862787;29;20065;-89
2022/10/21 10:57:04;;;;;;;11.05;8.93;;;;;;;13.74;80.27;99383.31;4822891;29;20069;-90
2022/10/21 10:59:35;;;;;;;14.50;9.43;;;;;;;13.78;79.79;99384.78;4841041;29;20037;-90
2022/10/21 11:02:07;;;;;;;18.27;11.80;;;;;;;13.80;79.84;99384.69;4841292;29;20057;-89
2022/10/21 11:04:56;;;;;;;14.05;9.57;;;;;;;13.89;80.14;99371.81;4841236;29;20485;-90
2022/10/21 11:07:32;;;;;;;13.52;9.18;;;;;;;14.01;79.83;99358.88;4840991;29;20118;-91
2022/10/21 11:10:03;;;;;;;12.00;8.88;;;;;;;14.14;80.06;99346.66;4863390;29;20029;-90
2022/10/21 11:12:29;;;;;;;11.35;8.13;;;;;;;14.25;78.55;99346.81;4862854;29;20485;-88
2022/10/21 11:14:57;;;;;;;10.82;8.02;;;;;;;14.40;78.87;99342.31;4862900;29;20029;-89
2022/10/21 11:17:52;;;;;;;10.55;7.72;;;;;;;14.47;78.32;99352.28;4868646;29;20184;-88
2022/10/21 11:20:31;;;;;;;12.00;7.57;;;;;;;14.42;77.73;99370.09;4910510;29;20123;-89
2022/10/21 11:23:14;;;;;;;13.40;8.77;;;;;;;14.24;76.91;99360.81;4900113;29;20027;-89
2022/10/21 11:26:01;;;;;;;11.00;7.82;;;;;;;14.16;77.51;99356.13;4900037;29;20023;-89
2022/10/21 11:28:38;;;;;;;9.05;7.10;;;;;;;14.09;77.97;99354.81;4899657;29;20627;-89
2022/10/21 11:31:16;;;;;;;10.93;7.30;;;;;;;14.02;77.84;99342.22;4915548;29;20580;-90